sensor_id;sensor_type;location;lat;lon;timestamp;P1;durP1;ratioP1;P2;durP2;ratioP2
2868;SDS011;1442;47.448;8.582;2023-04-15T00:02:13;7.82;;;2.10;;
2868;SDS011;1442;47.448;8.582;2023-04-15T00:04:42;5.95;;;2.17;;
2868;SDS011;1442;47.448;8.582;2023-04-15T00:07:10;3.58;;;1.77;;
2868;SDS011;1442;47.448;8.582;2023-04-15T00:09:38;5.78;;;1.67;;
2868;SDS011;1442;47.448;8.582;2023-04-15T00:12:05;3.63;;;1.75;;
2868;SDS011;1442;47.448;8.582;2023-04-15T00:14:33;7.22;;;1.40;;
2868;SDS011;1442;47.448;8.582;2023-04-15T00:17:00;5.97;;;1.40;;
2868;SDS011;1442;47.448;8.582;2023-04-15T00:19:28;5.13;;;1.65;;
2868;SDS011;1442;47.448;8.582;2023-04-15T00:21:55;8.88;;;1.67;;
2868;SDS011;1442;47.448;8.582;2023-04-15T00:24:23;2.90;;;1.35;;
2868;SDS011;1442;47.448;8.582;2023-04-15T00:26:50;8.48;;;1.52;;
2868;SDS011;1442;47.448;8.582;2023-04-15T00:29:18;2.78;;;1.48;;
2868;SDS011;1442;47.448;8.582;2023-04-15T00:31:45;4.28;;;1.70;;
2868;SDS011;1442;47.448;8.582;2023-04-15T00:34:12;2.65;;;1.25;;
2868;SDS011;1442;47.448;8.582;2023-04-15T00:36:39;4.43;;;1.52;;
2868;SDS011;1442;47.448;8.582;2023-04-15T00:39:06;5.57;;;1.55;;
2868;SDS011;1442;47.448;8.582;2023-04-15T00:41:34;5.32;;;1.73;;
2868;SDS011;1442;47.448;8.582;2023-04-15T00:44:04;5.55;;;1.48;;
2868;SDS011;1442;47.448;8.582;2023-04-15T00:46:31;5.47;;;1.50;;
2868;SDS011;1442;47.448;8.582;2023-04-15T00:48:59;3.90;;;1.70;;
2868;SDS011;1442;47.448;8.582;2023-04-15T00:51:26;7.45;;;1.90;;
2868;SDS011;1442;47.448;8.582;2023-04-15T00:53:55;2.35;;;1.70;;
2868;SDS011;1442;47.448;8.582;2023-04-15T00:56:22;2.70;;;1.45;;
2868;SDS011;1442;47.448;8.582;2023-04-15T00:58:51;2.42;;;1.42;;
2868;SDS011;1442;47.448;8.582;2023-04-15T01:01:18;4.97;;;2.03;;
2868;SDS011;1442;47.448;8.582;2023-04-15T01:03:46;5.10;;;1.55;;
2868;SDS011;1442;47.448;8.582;2023-04-15T01:06:14;4.40;;;1.58;;
2868;SDS011;1442;47.448;8.582;2023-04-15T01:08:41;4.68;;;1.60;;
2868;SDS011;1442;47.448;8.582;2023-04-15T01:11:09;2.40;;;1.20;;
2868;SDS011;1442;47.448;8.582;2023-04-15T01:13:38;3.03;;;1.73;;
2868;SDS011;1442;47.448;8.582;2023-04-15T01:16:07;3.45;;;1.45;;
2868;SDS011;1442;47.448;8.582;2023-04-15T01:18:34;5.00;;;1.20;;
2868;SDS011;1442;47.448;8.582;2023-04-15T01:21:01;3.58;;;1.67;;
2868;SDS011;1442;47.448;8.582;2023-04-15T01:23:31;4.75;;;1.08;;
2868;SDS011;1442;47.448;8.582;2023-04-15T01:25:59;5.10;;;1.20;;
2868;SDS011;1442;47.448;8.582;2023-04-15T01:28:27;2.25;;;1.23;;
2868;SDS011;1442;47.448;8.582;2023-04-15T01:31:04;4.00;;;1.35;;
2868;SDS011;1442;47.448;8.582;2023-04-15T01:33:32;7.22;;;1.67;;
2868;SDS011;1442;47.448;8.582;2023-04-15T01:35:59;4.97;;;1.30;;
2868;SDS011;1442;47.448;8.582;2023-04-15T01:38:26;3.60;;;1.45;;
2868;SDS011;1442;47.448;8.582;2023-04-15T01:40:54;4.32;;;1.88;;
2868;SDS011;1442;47.448;8.582;2023-04-15T01:43:23;2.97;;;1.50;;
2868;SDS011;1442;47.448;8.582;2023-04-15T01:45:50;3.72;;;1.30;;
2868;SDS011;1442;47.448;8.582;2023-04-15T01:48:17;6.80;;;1.70;;
2868;SDS011;1442;47.448;8.582;2023-04-15T01:50:45;2.80;;;1.30;;
2868;SDS011;1442;47.448;8.582;2023-04-15T01:53:12;1.55;;;1.20;;
2868;SDS011;1442;47.448;8.582;2023-04-15T01:55:39;5.68;;;1.33;;
2868;SDS011;1442;47.448;8.582;2023-04-15T01:58:07;2.72;;;1.50;;
2868;SDS011;1442;47.448;8.582;2023-04-15T02:00:35;4.85;;;1.52;;
2868;SDS011;1442;47.448;8.582;2023-04-15T02:03:02;2.88;;;1.40;;
2868;SDS011;1442;47.448;8.582;2023-04-15T02:05:30;6.80;;;1.63;;
2868;SDS011;1442;47.448;8.582;2023-04-15T02:07:57;5.07;;;1.52;;
2868;SDS011;1442;47.448;8.582;2023-04-15T02:10:25;6.13;;;1.30;;
2868;SDS011;1442;47.448;8.582;2023-04-15T02:12:52;6.40;;;1.35;;
2868;SDS011;1442;47.448;8.582;2023-04-15T02:15:19;2.25;;;1.27;;
2868;SDS011;1442;47.448;8.582;2023-04-15T02:17:48;3.80;;;1.50;;
2868;SDS011;1442;47.448;8.582;2023-04-15T02:20:17;5.30;;;1.15;;
2868;SDS011;1442;47.448;8.582;2023-04-15T02:22:45;2.70;;;1.23;;
2868;SDS011;1442;47.448;8.582;2023-04-15T02:25:12;5.65;;;1.52;;
2868;SDS011;1442;47.448;8.582;2023-04-15T02:27:40;2.75;;;1.83;;
2868;SDS011;1442;47.448;8.582;2023-04-15T02:30:08;2.33;;;1.15;;
2868;SDS011;1442;47.448;8.582;2023-04-15T02:32:35;2.72;;;1.50;;
2868;SDS011;1442;47.448;8.582;2023-04-15T02:35:04;4.38;;;1.38;;
2868;SDS011;1442;47.448;8.582;2023-04-15T02:37:31;6.78;;;1.42;;
2868;SDS011;1442;47.448;8.582;2023-04-15T02:40:01;3.00;;;1.20;;
2868;SDS011;1442;47.448;8.582;2023-04-15T02:42:29;4.18;;;1.42;;
2868;SDS011;1442;47.448;8.582;2023-04-15T02:44:56;4.75;;;1.30;;
2868;SDS011;1442;47.448;8.582;2023-04-15T02:47:23;2.30;;;1.25;;
2868;SDS011;1442;47.448;8.582;2023-04-15T02:49:51;11.75;;;1.23;;
2868;SDS011;1442;47.448;8.582;2023-04-15T02:52:19;1.80;;;1.30;;
2868;SDS011;1442;47.448;8.582;2023-04-15T02:54:46;1.80;;;1.25;;
2868;SDS011;1442;47.448;8.582;2023-04-15T02:57:13;1.02;;;0.88;;
2868;SDS011;1442;47.448;8.582;2023-04-15T02:59:41;4.65;;;1.27;;
2868;SDS011;1442;47.448;8.582;2023-04-15T03:02:08;3.28;;;1.23;;
2868;SDS011;1442;47.448;8.582;2023-04-15T03:04:35;3.38;;;1.48;;
2868;SDS011;1442;47.448;8.582;2023-04-15T03:07:03;3.38;;;1.13;;
2868;SDS011;1442;47.448;8.582;2023-04-15T03:09:32;4.18;;;1.10;;
2868;SDS011;1442;47.448;8.582;2023-04-15T03:11:59;2.67;;;0.75;;
2868;SDS011;1442;47.448;8.582;2023-04-15T03:14:26;3.22;;;0.82;;
2868;SDS011;1442;47.448;8.582;2023-04-15T03:16:53;2.63;;;1.17;;
2868;SDS011;1442;47.448;8.582;2023-04-15T03:19:20;2.92;;;0.95;;
2868;SDS011;1442;47.448;8.582;2023-04-15T03:21:47;2.47;;;1.27;;
2868;SDS011;1442;47.448;8.582;2023-04-15T03:24:14;3.22;;;1.85;;
2868;SDS011;1442;47.448;8.582;2023-04-15T03:26:43;3.42;;;1.00;;
2868;SDS011;1442;47.448;8.582;2023-04-15T03:29:10;1.75;;;1.30;;
2868;SDS011;1442;47.448;8.582;2023-04-15T03:31:37;3.45;;;1.27;;
2868;SDS011;1442;47.448;8.582;2023-04-15T03:34:04;1.52;;;1.30;;
2868;SDS011;1442;47.448;8.582;2023-04-15T03:36:31;2.33;;;1.20;;
2868;SDS011;1442;47.448;8.582;2023-04-15T03:38:59;3.20;;;1.52;;
2868;SDS011;1442;47.448;8.582;2023-04-15T03:41:26;3.95;;;1.17;;
2868;SDS011;1442;47.448;8.582;2023-04-15T03:43:54;4.22;;;1.75;;
2868;SDS011;1442;47.448;8.582;2023-04-15T03:46:21;3.38;;;0.95;;
2868;SDS011;1442;47.448;8.582;2023-04-15T03:48:49;1.95;;;1.00;;
2868;SDS011;1442;47.448;8.582;2023-04-15T03:51:16;3.78;;;1.17;;
2868;SDS011;1442;47.448;8.582;2023-04-15T03:53:43;2.78;;;1.58;;
2868;SDS011;1442;47.448;8.582;2023-04-15T03:56:10;2.67;;;0.80;;
2868;SDS011;1442;47.448;8.582;2023-04-15T03:58:37;3.08;;;1.10;;
2868;SDS011;1442;47.448;8.582;2023-04-15T04:01:06;1.65;;;1.02;;
2868;SDS011;1442;47.448;8.582;2023-04-15T04:03:33;1.42;;;1.10;;
2868;SDS011;1442;47.448;8.582;2023-04-15T04:06:01;2.63;;;1.35;;
2868;SDS011;1442;47.448;8.582;2023-04-15T04:08:28;2.38;;;1.10;;
2868;SDS011;1442;47.448;8.582;2023-04-15T04:10:55;2.75;;;1.10;;
2868;SDS011;1442;47.448;8.582;2023-04-15T04:13:22;1.70;;;1.00;;
2868;SDS011;1442;47.448;8.582;2023-04-15T04:15:50;3.90;;;1.02;;
2868;SDS011;1442;47.448;8.582;2023-04-15T04:18:18;2.47;;;1.25;;
2868;SDS011;1442;47.448;8.582;2023-04-15T04:20:45;2.15;;;1.27;;
2868;SDS011;1442;47.448;8.582;2023-04-15T04:23:12;4.40;;;1.35;;
2868;SDS011;1442;47.448;8.582;2023-04-15T04:25:39;1.27;;;1.08;;
2868;SDS011;1442;47.448;8.582;2023-04-15T04:28:07;1.88;;;1.20;;
2868;SDS011;1442;47.448;8.582;2023-04-15T04:30:35;4.30;;;1.17;;
2868;SDS011;1442;47.448;8.582;2023-04-15T04:33:04;3.05;;;1.63;;
2868;SDS011;1442;47.448;8.582;2023-04-15T04:35:32;2.08;;;1.20;;
2868;SDS011;1442;47.448;8.582;2023-04-15T04:38:01;1.98;;;1.20;;
2868;SDS011;1442;47.448;8.582;2023-04-15T04:40:29;3.28;;;1.10;;
2868;SDS011;1442;47.448;8.582;2023-04-15T04:42:56;3.80;;;1.08;;
2868;SDS011;1442;47.448;8.582;2023-04-15T04:45:23;4.63;;;1.27;;
2868;SDS011;1442;47.448;8.582;2023-04-15T04:47:51;1.80;;;1.20;;
2868;SDS011;1442;47.448;8.582;2023-04-15T04:50:18;1.95;;;1.35;;
2868;SDS011;1442;47.448;8.582;2023-04-15T04:52:47;3.63;;;1.20;;
2868;SDS011;1442;47.448;8.582;2023-04-15T04:55:14;2.55;;;1.00;;
2868;SDS011;1442;47.448;8.582;2023-04-15T04:57:41;2.15;;;0.98;;
2868;SDS011;1442;47.448;8.582;2023-04-15T05:00:08;4.07;;;0.95;;
2868;SDS011;1442;47.448;8.582;2023-04-15T05:02:36;4.18;;;1.38;;
2868;SDS011;1442;47.448;8.582;2023-04-15T05:05:04;5.40;;;1.10;;
2868;SDS011;1442;47.448;8.582;2023-04-15T05:07:31;1.60;;;0.95;;
2868;SDS011;1442;47.448;8.582;2023-04-15T05:10:00;3.97;;;1.25;;
2868;SDS011;1442;47.448;8.582;2023-04-15T05:12:27;3.03;;;1.08;;
2868;SDS011;1442;47.448;8.582;2023-04-15T05:14:54;1.75;;;0.95;;
2868;SDS011;1442;47.448;8.582;2023-04-15T05:17:21;2.15;;;1.08;;
2868;SDS011;1442;47.448;8.582;2023-04-15T05:19:49;1.13;;;0.85;;
2868;SDS011;1442;47.448;8.582;2023-04-15T05:22:17;11.32;;;2.63;;
2868;SDS011;1442;47.448;8.582;2023-04-15T05:24:44;5.90;;;1.10;;
2868;SDS011;1442;47.448;8.582;2023-04-15T05:27:13;3.60;;;1.15;;
2868;SDS011;1442;47.448;8.582;2023-04-15T05:29:40;1.65;;;0.85;;
2868;SDS011;1442;47.448;8.582;2023-04-15T05:32:07;3.92;;;1.40;;
2868;SDS011;1442;47.448;8.582;2023-04-15T05:34:34;4.35;;;1.20;;
2868;SDS011;1442;47.448;8.582;2023-04-15T05:37:01;6.25;;;1.10;;
2868;SDS011;1442;47.448;8.582;2023-04-15T05:39:29;4.57;;;1.38;;
2868;SDS011;1442;47.448;8.582;2023-04-15T05:41:56;1.08;;;0.80;;
2868;SDS011;1442;47.448;8.582;2023-04-15T05:44:25;2.38;;;1.08;;
2868;SDS011;1442;47.448;8.582;2023-04-15T05:46:52;2.38;;;1.27;;
2868;SDS011;1442;47.448;8.582;2023-04-15T05:49:19;6.28;;;1.30;;
2868;SDS011;1442;47.448;8.582;2023-04-15T05:51:46;6.45;;;1.23;;
2868;SDS011;1442;47.448;8.582;2023-04-15T05:54:14;2.15;;;1.10;;
2868;SDS011;1442;47.448;8.582;2023-04-15T05:56:41;3.13;;;1.23;;
2868;SDS011;1442;47.448;8.582;2023-04-15T05:59:08;4.38;;;1.10;;
2868;SDS011;1442;47.448;8.582;2023-04-15T06:01:37;3.47;;;1.20;;
2868;SDS011;1442;47.448;8.582;2023-04-15T06:04:04;3.38;;;1.13;;
2868;SDS011;1442;47.448;8.582;2023-04-15T06:06:31;6.50;;;1.40;;
2868;SDS011;1442;47.448;8.582;2023-04-15T06:08:58;1.75;;;0.90;;
2868;SDS011;1442;47.448;8.582;2023-04-15T06:11:25;3.80;;;1.48;;
2868;SDS011;1442;47.448;8.582;2023-04-15T06:13:52;5.18;;;1.13;;
2868;SDS011;1442;47.448;8.582;2023-04-15T06:16:20;1.73;;;1.00;;
2868;SDS011;1442;47.448;8.582;2023-04-15T06:18:49;1.35;;;1.00;;
2868;SDS011;1442;47.448;8.582;2023-04-15T06:21:16;2.05;;;1.15;;
2868;SDS011;1442;47.448;8.582;2023-04-15T06:23:43;1.27;;;0.80;;
2868;SDS011;1442;47.448;8.582;2023-04-15T06:26:10;2.53;;;1.10;;
2868;SDS011;1442;47.448;8.582;2023-04-15T06:28:37;2.78;;;0.82;;
2868;SDS011;1442;47.448;8.582;2023-04-15T06:31:05;1.27;;;1.02;;
2868;SDS011;1442;47.448;8.582;2023-04-15T06:33:32;2.53;;;0.90;;
2868;SDS011;1442;47.448;8.582;2023-04-15T06:36:00;4.30;;;0.70;;
2868;SDS011;1442;47.448;8.582;2023-04-15T06:38:27;4.75;;;1.85;;
2868;SDS011;1442;47.448;8.582;2023-04-15T06:40:54;2.95;;;1.15;;
2868;SDS011;1442;47.448;8.582;2023-04-15T06:43:22;1.48;;;0.98;;
2868;SDS011;1442;47.448;8.582;2023-04-15T06:45:49;3.95;;;1.13;;
2868;SDS011;1442;47.448;8.582;2023-04-15T06:48:16;2.03;;;1.00;;
2868;SDS011;1442;47.448;8.582;2023-04-15T06:50:44;7.03;;;1.50;;
2868;SDS011;1442;47.448;8.582;2023-04-15T06:53:12;3.55;;;1.10;;
2868;SDS011;1442;47.448;8.582;2023-04-15T06:55:39;3.17;;;1.02;;
2868;SDS011;1442;47.448;8.582;2023-04-15T06:58:07;1.38;;;0.93;;
2868;SDS011;1442;47.448;8.582;2023-04-15T07:00:34;2.67;;;1.00;;
2868;SDS011;1442;47.448;8.582;2023-04-15T07:03:03;5.20;;;0.93;;
2868;SDS011;1442;47.448;8.582;2023-04-15T07:05:30;12.25;;;1.20;;
2868;SDS011;1442;47.448;8.582;2023-04-15T07:07:57;1.38;;;0.88;;
2868;SDS011;1442;47.448;8.582;2023-04-15T07:10:26;1.83;;;1.10;;
2868;SDS011;1442;47.448;8.582;2023-04-15T07:12:54;3.58;;;0.85;;
2868;SDS011;1442;47.448;8.582;2023-04-15T07:15:21;1.40;;;1.05;;
2868;SDS011;1442;47.448;8.582;2023-04-15T07:17:49;1.17;;;0.98;;
2868;SDS011;1442;47.448;8.582;2023-04-15T07:20:16;3.10;;;1.13;;
2868;SDS011;1442;47.448;8.582;2023-04-15T07:22:43;5.38;;;1.30;;
2868;SDS011;1442;47.448;8.582;2023-04-15T07:25:10;4.15;;;1.77;;
2868;SDS011;1442;47.448;8.582;2023-04-15T07:27:39;4.50;;;1.42;;
2868;SDS011;1442;47.448;8.582;2023-04-15T07:30:06;2.22;;;1.50;;
2868;SDS011;1442;47.448;8.582;2023-04-15T07:32:34;4.18;;;1.52;;
2868;SDS011;1442;47.448;8.582;2023-04-15T07:35:02;3.42;;;1.33;;
2868;SDS011;1442;47.448;8.582;2023-04-15T07:37:29;3.50;;;1.50;;
2868;SDS011;1442;47.448;8.582;2023-04-15T07:39:56;3.22;;;1.60;;
2868;SDS011;1442;47.448;8.582;2023-04-15T07:42:23;2.97;;;1.30;;
2868;SDS011;1442;47.448;8.582;2023-04-15T07:44:51;9.50;;;1.83;;
2868;SDS011;1442;47.448;8.582;2023-04-15T07:47:19;2.20;;;1.70;;
2868;SDS011;1442;47.448;8.582;2023-04-15T07:49:46;6.10;;;1.70;;
2868;SDS011;1442;47.448;8.582;2023-04-15T07:52:13;3.25;;;1.50;;
2868;SDS011;1442;47.448;8.582;2023-04-15T07:54:40;2.53;;;1.63;;
2868;SDS011;1442;47.448;8.582;2023-04-15T07:57:07;5.50;;;1.67;;
2868;SDS011;1442;47.448;8.582;2023-04-15T07:59:34;7.15;;;2.10;;
2868;SDS011;1442;47.448;8.582;2023-04-15T08:02:05;4.30;;;1.63;;
2868;SDS011;1442;47.448;8.582;2023-04-15T08:04:33;5.53;;;1.85;;
2868;SDS011;1442;47.448;8.582;2023-04-15T08:07:01;2.88;;;1.60;;
2868;SDS011;1442;47.448;8.582;2023-04-15T08:09:29;5.93;;;1.83;;
2868;SDS011;1442;47.448;8.582;2023-04-15T08:11:56;3.83;;;1.77;;
2868;SDS011;1442;47.448;8.582;2023-04-15T08:14:23;9.23;;;2.40;;
2868;SDS011;1442;47.448;8.582;2023-04-15T08:16:50;6.18;;;1.90;;
2868;SDS011;1442;47.448;8.582;2023-04-15T08:19:19;4.20;;;1.70;;
2868;SDS011;1442;47.448;8.582;2023-04-15T08:21:47;4.07;;;1.85;;
2868;SDS011;1442;47.448;8.582;2023-04-15T08:24:14;6.93;;;2.05;;
2868;SDS011;1442;47.448;8.582;2023-04-15T08:26:41;4.78;;;2.08;;
2868;SDS011;1442;47.448;8.582;2023-04-15T08:29:08;3.70;;;2.15;;
2868;SDS011;1442;47.448;8.582;2023-04-15T08:31:35;5.47;;;1.92;;
2868;SDS011;1442;47.448;8.582;2023-04-15T08:34:03;6.25;;;2.28;;
2868;SDS011;1442;47.448;8.582;2023-04-15T08:36:31;4.97;;;2.10;;
2868;SDS011;1442;47.448;8.582;2023-04-15T08:38:58;6.47;;;2.45;;
2868;SDS011;1442;47.448;8.582;2023-04-15T08:41:27;6.65;;;2.35;;
2868;SDS011;1442;47.448;8.582;2023-04-15T08:44:00;5.95;;;2.20;;
2868;SDS011;1442;47.448;8.582;2023-04-15T08:46:29;6.43;;;2.13;;
2868;SDS011;1442;47.448;8.582;2023-04-15T08:48:59;4.28;;;2.15;;
2868;SDS011;1442;47.448;8.582;2023-04-15T08:51:27;4.95;;;2.13;;
2868;SDS011;1442;47.448;8.582;2023-04-15T08:53:55;6.63;;;2.25;;
2868;SDS011;1442;47.448;8.582;2023-04-15T08:56:23;4.18;;;2.80;;
2868;SDS011;1442;47.448;8.582;2023-04-15T08:58:51;4.82;;;2.15;;
2868;SDS011;1442;47.448;8.582;2023-04-15T09:01:18;3.85;;;1.95;;
2868;SDS011;1442;47.448;8.582;2023-04-15T09:03:46;4.63;;;1.90;;
2868;SDS011;1442;47.448;8.582;2023-04-15T09:06:14;3.90;;;2.53;;
2868;SDS011;1442;47.448;8.582;2023-04-15T09:08:42;4.43;;;2.55;;
2868;SDS011;1442;47.448;8.582;2023-04-15T09:11:11;4.47;;;2.22;;
2868;SDS011;1442;47.448;8.582;2023-04-15T09:13:38;4.32;;;2.10;;
2868;SDS011;1442;47.448;8.582;2023-04-15T09:16:05;4.32;;;2.20;;
2868;SDS011;1442;47.448;8.582;2023-04-15T09:18:33;6.15;;;2.40;;
2868;SDS011;1442;47.448;8.582;2023-04-15T09:21:04;5.07;;;1.92;;
2868;SDS011;1442;47.448;8.582;2023-04-15T09:23:33;7.78;;;2.03;;
2868;SDS011;1442;47.448;8.582;2023-04-15T09:26:01;8.18;;;2.03;;
2868;SDS011;1442;47.448;8.582;2023-04-15T09:28:29;3.50;;;1.80;;
2868;SDS011;1442;47.448;8.582;2023-04-15T09:30:57;6.38;;;1.55;;
2868;SDS011;1442;47.448;8.582;2023-04-15T09:33:24;3.45;;;1.30;;
2868;SDS011;1442;47.448;8.582;2023-04-15T09:35:55;5.07;;;1.85;;
2868;SDS011;1442;47.448;8.582;2023-04-15T09:38:23;2.53;;;1.80;;
2868;SDS011;1442;47.448;8.582;2023-04-15T09:40:50;5.68;;;1.52;;
2868;SDS011;1442;47.448;8.582;2023-04-15T09:43:17;4.88;;;1.30;;
2868;SDS011;1442;47.448;8.582;2023-04-15T09:45:49;5.40;;;1.33;;
2868;SDS011;1442;47.448;8.582;2023-04-15T09:48:18;5.15;;;1.40;;
2868;SDS011;1442;47.448;8.582;2023-04-15T09:50:46;3.55;;;1.35;;
2868;SDS011;1442;47.448;8.582;2023-04-15T09:53:17;1.58;;;0.98;;
2868;SDS011;1442;47.448;8.582;2023-04-15T09:55:45;1.65;;;0.82;;
2868;SDS011;1442;47.448;8.582;2023-04-15T09:58:19;3.05;;;1.48;;
2868;SDS011;1442;47.448;8.582;2023-04-15T10:00:46;2.72;;;1.35;;
2868;SDS011;1442;47.448;8.582;2023-04-15T10:03:18;5.18;;;1.42;;
2868;SDS011;1442;47.448;8.582;2023-04-15T10:05:46;5.93;;;1.75;;
2868;SDS011;1442;47.448;8.582;2023-04-15T10:08:14;8.43;;;1.50;;
2868;SDS011;1442;47.448;8.582;2023-04-15T10:10:41;3.90;;;1.13;;
2868;SDS011;1442;47.448;8.582;2023-04-15T10:13:09;2.72;;;1.08;;
2868;SDS011;1442;47.448;8.582;2023-04-15T10:15:36;2.22;;;0.90;;
2868;SDS011;1442;47.448;8.582;2023-04-15T10:18:04;1.90;;;0.90;;
2868;SDS011;1442;47.448;8.582;2023-04-15T10:20:32;2.35;;;1.10;;
2868;SDS011;1442;47.448;8.582;2023-04-15T10:23:00;5.40;;;1.70;;
2868;SDS011;1442;47.448;8.582;2023-04-15T10:25:27;2.35;;;1.02;;
2868;SDS011;1442;47.448;8.582;2023-04-15T10:27:55;2.47;;;1.40;;
2868;SDS011;1442;47.448;8.582;2023-04-15T10:30:23;3.63;;;1.30;;
2868;SDS011;1442;47.448;8.582;2023-04-15T10:32:50;6.55;;;1.30;;
2868;SDS011;1442;47.448;8.582;2023-04-15T10:35:18;2.67;;;1.08;;
2868;SDS011;1442;47.448;8.582;2023-04-15T10:37:48;4.75;;;1.00;;
2868;SDS011;1442;47.448;8.582;2023-04-15T10:40:25;1.70;;;0.70;;
2868;SDS011;1442;47.448;8.582;2023-04-15T10:42:53;1.70;;;0.93;;
2868;SDS011;1442;47.448;8.582;2023-04-15T10:45:21;3.20;;;1.02;;
2868;SDS011;1442;47.448;8.582;2023-04-15T10:47:51;3.83;;;0.95;;
2868;SDS011;1442;47.448;8.582;2023-04-15T10:50:19;4.78;;;1.20;;
2868;SDS011;1442;47.448;8.582;2023-04-15T10:52:49;1.17;;;0.70;;
2868;SDS011;1442;47.448;8.582;2023-04-15T10:55:19;2.25;;;1.00;;
2868;SDS011;1442;47.448;8.582;2023-04-15T10:57:46;4.25;;;1.00;;
2868;SDS011;1442;47.448;8.582;2023-04-15T11:00:17;1.92;;;0.73;;
2868;SDS011;1442;47.448;8.582;2023-04-15T11:02:45;3.30;;;1.00;;
2868;SDS011;1442;47.448;8.582;2023-04-15T11:05:12;1.23;;;0.70;;
2868;SDS011;1442;47.448;8.582;2023-04-15T11:07:45;1.98;;;0.80;;
2868;SDS011;1442;47.448;8.582;2023-04-15T11:13:01;5.18;;;0.80;;
2868;SDS011;1442;47.448;8.582;2023-04-15T11:15:30;3.45;;;1.00;;
2868;SDS011;1442;47.448;8.582;2023-04-15T11:17:59;3.15;;;0.95;;
2868;SDS011;1442;47.448;8.582;2023-04-15T11:20:26;2.92;;;0.65;;
2868;SDS011;1442;47.448;8.582;2023-04-15T11:22:53;3.25;;;1.35;;
2868;SDS011;1442;47.448;8.582;2023-04-15T11:25:21;5.85;;;1.88;;
2868;SDS011;1442;47.448;8.582;2023-04-15T11:27:48;4.93;;;1.73;;
2868;SDS011;1442;47.448;8.582;2023-04-15T11:30:21;3.40;;;2.05;;
2868;SDS011;1442;47.448;8.582;2023-04-15T11:32:48;4.35;;;2.05;;
2868;SDS011;1442;47.448;8.582;2023-04-15T11:35:16;4.32;;;1.80;;
2868;SDS011;1442;47.448;8.582;2023-04-15T11:37:43;3.25;;;2.22;;
2868;SDS011;1442;47.448;8.582;2023-04-15T11:40:11;4.65;;;2.17;;
2868;SDS011;1442;47.448;8.582;2023-04-15T11:42:39;5.57;;;1.73;;
2868;SDS011;1442;47.448;8.582;2023-04-15T11:45:06;4.03;;;1.60;;
2868;SDS011;1442;47.448;8.582;2023-04-15T11:47:35;2.97;;;1.70;;
2868;SDS011;1442;47.448;8.582;2023-04-15T11:52:53;4.32;;;1.58;;
2868;SDS011;1442;47.448;8.582;2023-04-15T11:55:21;5.63;;;1.77;;
2868;SDS011;1442;47.448;8.582;2023-04-15T11:57:49;3.95;;;1.77;;
2868;SDS011;1442;47.448;8.582;2023-04-15T12:00:16;3.75;;;1.75;;
2868;SDS011;1442;47.448;8.582;2023-04-15T12:02:44;4.63;;;1.58;;
2868;SDS011;1442;47.448;8.582;2023-04-15T12:05:11;5.72;;;1.90;;
2868;SDS011;1442;47.448;8.582;2023-04-15T12:07:57;8.10;;;2.30;;
2868;SDS011;1442;47.448;8.582;2023-04-15T12:10:24;3.13;;;1.73;;
2868;SDS011;1442;47.448;8.582;2023-04-15T12:12:51;4.53;;;1.95;;
2868;SDS011;1442;47.448;8.582;2023-04-15T12:15:20;3.95;;;1.80;;
2868;SDS011;1442;47.448;8.582;2023-04-15T12:17:49;4.93;;;1.88;;
2868;SDS011;1442;47.448;8.582;2023-04-15T12:20:20;4.60;;;1.80;;
2868;SDS011;1442;47.448;8.582;2023-04-15T12:22:47;5.03;;;1.70;;
2868;SDS011;1442;47.448;8.582;2023-04-15T12:25:15;2.92;;;1.65;;
2868;SDS011;1442;47.448;8.582;2023-04-15T12:27:49;6.18;;;2.00;;
2868;SDS011;1442;47.448;8.582;2023-04-15T12:30:16;2.33;;;1.55;;
2868;SDS011;1442;47.448;8.582;2023-04-15T12:32:43;5.10;;;1.95;;
2868;SDS011;1442;47.448;8.582;2023-04-15T12:35:13;3.90;;;1.65;;
2868;SDS011;1442;47.448;8.582;2023-04-15T12:37:40;3.13;;;2.08;;
2868;SDS011;1442;47.448;8.582;2023-04-15T12:40:07;3.13;;;2.05;;
2868;SDS011;1442;47.448;8.582;2023-04-15T12:42:35;2.15;;;1.42;;
2868;SDS011;1442;47.448;8.582;2023-04-15T12:45:02;2.50;;;1.60;;
2868;SDS011;1442;47.448;8.582;2023-04-15T12:47:29;3.03;;;1.55;;
2868;SDS011;1442;47.448;8.582;2023-04-15T12:49:56;3.42;;;1.50;;
2868;SDS011;1442;47.448;8.582;2023-04-15T12:52:25;3.85;;;1.70;;
2868;SDS011;1442;47.448;8.582;2023-04-15T12:54:52;3.13;;;1.77;;
2868;SDS011;1442;47.448;8.582;2023-04-15T12:57:19;3.97;;;1.70;;
2868;SDS011;1442;47.448;8.582;2023-04-15T12:59:46;2.28;;;1.73;;
2868;SDS011;1442;47.448;8.582;2023-04-15T13:02:13;3.47;;;1.60;;
2868;SDS011;1442;47.448;8.582;2023-04-15T13:04:40;4.45;;;1.70;;
2868;SDS011;1442;47.448;8.582;2023-04-15T13:07:08;6.72;;;1.73;;
2868;SDS011;1442;47.448;8.582;2023-04-15T13:09:36;2.28;;;1.48;;
2868;SDS011;1442;47.448;8.582;2023-04-15T13:12:03;3.45;;;1.55;;
2868;SDS011;1442;47.448;8.582;2023-04-15T13:14:30;3.05;;;1.40;;
2868;SDS011;1442;47.448;8.582;2023-04-15T13:16:58;3.58;;;1.98;;
2868;SDS011;1442;47.448;8.582;2023-04-15T13:19:25;4.22;;;1.30;;
2868;SDS011;1442;47.448;8.582;2023-04-15T13:21:52;3.95;;;1.33;;
2868;SDS011;1442;47.448;8.582;2023-04-15T13:24:20;2.40;;;1.40;;
2868;SDS011;1442;47.448;8.582;2023-04-15T13:26:48;4.30;;;1.50;;
2868;SDS011;1442;47.448;8.582;2023-04-15T13:29:16;5.65;;;1.95;;
2868;SDS011;1442;47.448;8.582;2023-04-15T13:31:43;4.38;;;1.30;;
2868;SDS011;1442;47.448;8.582;2023-04-15T13:34:10;3.58;;;1.35;;
2868;SDS011;1442;47.448;8.582;2023-04-15T13:36:37;5.20;;;1.58;;
2868;SDS011;1442;47.448;8.582;2023-04-15T13:39:04;4.70;;;1.63;;
2868;SDS011;1442;47.448;8.582;2023-04-15T13:41:32;3.05;;;1.38;;
2868;SDS011;1442;47.448;8.582;2023-04-15T13:44:00;3.83;;;1.50;;
2868;SDS011;1442;47.448;8.582;2023-04-15T13:46:29;1.65;;;1.20;;
2868;SDS011;1442;47.448;8.582;2023-04-15T13:48:56;6.38;;;1.15;;
2868;SDS011;1442;47.448;8.582;2023-04-15T13:51:23;3.70;;;1.95;;
2868;SDS011;1442;47.448;8.582;2023-04-15T13:53:51;3.00;;;1.23;;
2868;SDS011;1442;47.448;8.582;2023-04-15T13:56:18;1.20;;;1.10;;
2868;SDS011;1442;47.448;8.582;2023-04-15T13:58:45;4.20;;;1.02;;
2868;SDS011;1442;47.448;8.582;2023-04-15T14:01:14;3.85;;;1.20;;
2868;SDS011;1442;47.448;8.582;2023-04-15T14:03:41;4.15;;;0.90;;
2868;SDS011;1442;47.448;8.582;2023-04-15T14:06:08;4.90;;;1.30;;
2868;SDS011;1442;47.448;8.582;2023-04-15T14:08:35;3.05;;;1.17;;
2868;SDS011;1442;47.448;8.582;2023-04-15T14:11:02;5.68;;;1.65;;
2868;SDS011;1442;47.448;8.582;2023-04-15T14:13:29;2.08;;;1.17;;
2868;SDS011;1442;47.448;8.582;2023-04-15T14:15:56;4.03;;;1.05;;
2868;SDS011;1442;47.448;8.582;2023-04-15T14:18:25;2.28;;;1.10;;
2868;SDS011;1442;47.448;8.582;2023-04-15T14:20:53;3.35;;;1.02;;
2868;SDS011;1442;47.448;8.582;2023-04-15T14:23:21;2.42;;;1.00;;
2868;SDS011;1442;47.448;8.582;2023-04-15T14:25:48;3.42;;;1.20;;
2868;SDS011;1442;47.448;8.582;2023-04-15T14:28:16;2.25;;;1.00;;
2868;SDS011;1442;47.448;8.582;2023-04-15T14:30:43;3.50;;;1.27;;
2868;SDS011;1442;47.448;8.582;2023-04-15T14:33:10;1.48;;;0.80;;
2868;SDS011;1442;47.448;8.582;2023-04-15T14:35:38;1.67;;;1.08;;
2868;SDS011;1442;47.448;8.582;2023-04-15T14:38:06;1.63;;;1.10;;
2868;SDS011;1442;47.448;8.582;2023-04-15T14:40:34;1.15;;;0.90;;
2868;SDS011;1442;47.448;8.582;2023-04-15T14:43:02;3.58;;;1.40;;
2868;SDS011;1442;47.448;8.582;2023-04-15T14:45:29;1.42;;;1.00;;
2868;SDS011;1442;47.448;8.582;2023-04-15T14:47:57;1.42;;;0.70;;
2868;SDS011;1442;47.448;8.582;2023-04-15T14:50:25;1.17;;;1.08;;
2868;SDS011;1442;47.448;8.582;2023-04-15T14:52:53;3.20;;;1.00;;
2868;SDS011;1442;47.448;8.582;2023-04-15T14:55:21;1.70;;;1.00;;
2868;SDS011;1442;47.448;8.582;2023-04-15T14:57:48;2.85;;;1.00;;
2868;SDS011;1442;47.448;8.582;2023-04-15T15:00:15;2.08;;;0.93;;
2868;SDS011;1442;47.448;8.582;2023-04-15T15:02:42;1.33;;;0.65;;
2868;SDS011;1442;47.448;8.582;2023-04-15T15:05:11;1.65;;;1.35;;
2868;SDS011;1442;47.448;8.582;2023-04-15T15:07:38;4.63;;;2.10;;
2868;SDS011;1442;47.448;8.582;2023-04-15T15:10:07;4.25;;;2.50;;
2868;SDS011;1442;47.448;8.582;2023-04-15T15:12:34;1.80;;;1.38;;
2868;SDS011;1442;47.448;8.582;2023-04-15T15:15:02;4.57;;;1.75;;
2868;SDS011;1442;47.448;8.582;2023-04-15T15:17:29;3.45;;;2.30;;
2868;SDS011;1442;47.448;8.582;2023-04-15T15:19:56;4.03;;;1.67;;
2868;SDS011;1442;47.448;8.582;2023-04-15T15:22:23;4.00;;;2.58;;
2868;SDS011;1442;47.448;8.582;2023-04-15T15:24:50;3.55;;;2.38;;